Time;durP1;ratioP1;P1;durP2;ratioP2;P2;SDS_P1;SDS_P2;PMS_P1;PMS_P2;Temp;Humidity;BMP_temperature;BMP_pressure;BME280_temperature;BME280_humidity;BME280_pressure;Samples;Min_cycle;Max_cycle;Signal;HPM_P1;HPM_P2
2022/12/30 09:21:31;;;;;;;7.77;2.23;;;;;;;5.27;100.00;100595.75;5296009;27;20984;-74
2022/12/30 09:24:02;;;;;;;8.13;2.37;;;;;;;5.27;100.00;100598.34;5294936;28;20032;-73
2022/12/30 09:26:33;;;;;;;14.17;2.47;;;;;;;5.44;100.00;100596.81;5294951;28;20012;-75
2022/12/30 09:29:05;;;;;;;11.40;2.30;;;;;;;5.43;100.00;100590.78;5294812;28;20024;-75
2022/12/30 09:31:36;;;;;;;9.10;1.93;;;;;;;5.49;100.00;100592.28;5294142;28;20031;-74
2022/12/30 09:34:07;;;;;;;13.93;2.53;;;;;;;5.53;100.00;100586.00;5294325;28;20089;-75
2022/12/30 09:36:39;;;;;;;8.40;2.20;;;;;;;5.55;100.00;100578.19;5294073;28;20027;-75
2022/12/30 09:39:11;;;;;;;8.47;1.70;;;;;;;5.62;100.00;100579.59;5294216;28;20025;-75
2022/12/30 09:45:06;;;;;;;6.73;2.20;;;;;;;5.68;100.00;100575.88;5289135;28;20115;-75
2022/12/30 09:47:44;;;;;;;10.03;2.00;;;;;;;5.73;100.00;100563.53;5294309;28;20531;-74
2022/12/30 09:50:22;;;;;;;8.00;2.00;;;;;;;5.75;100.00;100555.66;5293826;28;20028;-78
2022/12/30 09:53:04;;;;;;;7.97;1.87;;;;;;;5.86;100.00;100557.78;5291483;28;20044;-75
2022/12/30 09:55:55;;;;;;;8.40;1.87;;;;;;;5.89;100.00;100552.44;5292414;28;20020;-74
2022/12/30 09:58:33;;;;;;;10.53;2.47;;;;;;;5.93;100.00;100548.81;5293831;28;20582;-75
2022/12/30 10:01:19;;;;;;;9.10;2.10;;;;;;;5.94;100.00;100540.09;5292921;28;20390;-76
2022/12/30 10:03:57;;;;;;;5.97;1.50;;;;;;;6.02;100.00;100532.78;5295103;28;20028;-74
2022/12/30 10:06:35;;;;;;;8.03;2.07;;;;;;;6.05;100.00;100531.84;5295697;28;20477;-75
2022/12/30 10:09:36;;;;;;;8.80;2.10;;;;;;;6.11;100.00;100525.53;5294372;28;20024;-75
2022/12/30 10:12:37;;;;;;;7.17;1.60;;;;;;;6.19;100.00;100523.41;5272700;28;20025;-76
2022/12/30 10:15:19;;;;;;;8.20;1.53;;;;;;;6.19;100.00;100513.00;5273808;28;20056;-75
2022/12/30 10:18:11;;;;;;;9.43;1.60;;;;;;;6.25;100.00;100506.69;5275207;28;20043;-76
2022/12/30 10:21:14;;;;;;;6.60;1.60;;;;;;;6.28;100.00;100489.16;5292069;28;20055;-75
2022/12/30 10:24:00;;;;;;;9.97;3.00;;;;;;;6.31;100.00;100476.91;5293176;28;20020;-78
2022/12/30 10:26:45;;;;;;;11.20;2.23;;;;;;;6.29;100.00;100451.84;5292612;28;20021;-77
2022/12/30 10:29:22;;;;;;;7.07;2.33;;;;;;;6.36;100.00;100451.53;5293397;28;20055;-75
2022/12/30 10:31:53;;;;;;;7.93;1.73;;;;;;;6.37;100.00;100451.44;5279108;28;20086;-75
2022/12/30 10:34:29;;;;;;;10.90;2.13;;;;;;;6.44;100.00;100452.00;5280544;28;20028;-74
2022/12/30 10:37:11;;;;;;;6.60;1.80;;;;;;;6.50;100.00;100443.06;5281068;28;20033;-76
2022/12/30 10:39:49;;;;;;;5.10;1.83;;;;;;;6.44;100.00;100436.38;5281072;28;20036;-72
2022/12/30 10:42:37;;;;;;;8.17;1.50;;;;;;;6.50;100.00;100423.09;5279931;28;20067;-74
2022/12/30 10:45:28;;;;;;;9.33;2.93;;;;;;;6.52;100.00;100404.81;5279714;28;20055;-79
2022/12/30 10:48:18;;;;;;;10.43;2.73;;;;;;;6.56;100.00;100395.94;5279648;28;20032;-84
2022/12/30 10:50:52;;;;;;;11.57;2.90;;;;;;;6.53;100.00;100373.50;5278383;28;20027;-84
2022/12/30 10:53:26;;;;;;;17.77;3.90;;;;;;;6.57;100.00;100368.97;5281668;28;20153;-80
2022/12/30 10:56:00;;;;;;;10.82;3.85;;;;;;;6.57;100.00;100373.34;5281828;28;20101;-80
2022/12/30 10:58:43;;;;;;;19.13;6.07;;;;;;;6.68;100.00;100360.63;5280499;28;20044;-82
2022/12/30 11:01:18;;;;;;;16.63;5.50;;;;;;;6.63;100.00;100341.81;5276131;28;20068;-77
2022/12/30 11:03:58;;;;;;;8.97;2.63;;;;;;;6.35;100.00;100288.59;5279106;28;20052;-79
2022/12/30 11:06:37;;;;;;;11.43;3.37;;;;;;;6.71;100.00;100329.25;5275457;28;20063;-75
2022/12/30 11:09:11;;;;;;;10.97;2.37;;;;;;;6.76;100.00;100332.44;5267523;28;20040;-73
2022/12/30 11:14:57;;;;;;;10.10;3.23;;;;;;;6.81;100.00;100315.75;5274468;28;20036;-74
2022/12/30 11:17:32;;;;;;;9.17;2.10;;;;;;;6.85;100.00;100310.31;5274822;28;20021;-75
2022/12/30 11:20:19;;;;;;;9.20;2.87;;;;;;;6.86;100.00;100295.53;5275398;28;20052;-75
2022/12/30 11:22:53;;;;;;;13.47;2.37;;;;;;;6.87;100.00;100292.84;5273127;28;20031;-74
2022/12/30 11:25:28;;;;;;;11.02;2.35;;;;;;;6.92;100.00;100287.38;5277562;28;20024;-74
2022/12/30 11:28:03;;;;;;;11.63;3.00;;;;;;;6.94;100.00;100264.72;5277893;28;20042;-73
2022/12/30 11:30:56;;;;;;;10.90;2.00;;;;;;;6.98;100.00;100261.00;5277003;28;20379;-73
2022/12/30 11:33:33;;;;;;;14.03;3.10;;;;;;;6.99;100.00;100247.09;5275719;28;20031;-73
2022/12/30 11:36:18;;;;;;;7.60;2.50;;;;;;;7.01;100.00;100236.59;5277682;28;20020;-74
2022/12/30 11:38:51;;;;;;;8.77;2.67;;;;;;;6.96;100.00;100221.22;5276051;28;20105;-71
2022/12/30 11:41:23;;;;;;;9.43;2.00;;;;;;;7.07;100.00;100218.00;5276770;28;20467;-74
2022/12/30 11:43:58;;;;;;;10.43;2.27;;;;;;;7.09;100.00;100215.31;5274850;28;20509;-73
2022/12/30 11:46:36;;;;;;;7.40;2.00;;;;;;;7.06;100.00;100189.44;5275794;28;20028;-77
2022/12/30 11:49:29;;;;;;;7.90;2.23;;;;;;;7.16;100.00;100190.63;5282188;28;20017;-74
2022/12/30 11:52:03;;;;;;;8.90;2.23;;;;;;;7.21;100.00;100187.78;5277925;28;20032;-74
2022/12/30 11:54:47;;;;;;;13.98;4.28;;;;;;;7.22;100.00;100177.25;5278746;28;20030;-74
2022/12/30 11:57:27;;;;;;;11.27;2.40;;;;;;;6.88;100.00;100101.03;5258269;28;20029;-73
2022/12/30 12:00:05;;;;;;;13.40;3.07;;;;;;;7.26;100.00;100146.69;5257476;28;20028;-73
2022/12/30 12:02:40;;;;;;;17.67;3.20;;;;;;;7.32;100.00;100138.50;5272304;28;20020;-73
2022/12/30 12:05:20;;;;;;;7.33;1.80;;;;;;;7.39;100.00;100141.59;5282338;28;20055;-73
2022/12/30 12:07:56;;;;;;;8.87;1.87;;;;;;;7.22;100.00;100101.72;5257346;28;20055;-73
2022/12/30 12:10:35;;;;;;;13.30;3.87;;;;;;;7.41;100.00;100121.50;5269446;28;20024;-74
2022/12/30 12:13:27;;;;;;;9.93;2.83;;;;;;;7.50;100.00;100120.13;5275259;28;20085;-73
2022/12/30 12:15:59;;;;;;;8.60;1.77;;;;;;;7.52;100.00;100117.44;5276984;28;20107;-73
2022/12/30 12:18:52;;;;;;;10.90;2.10;;;;;;;7.47;100.00;100099.47;5278457;28;20025;-74
2022/12/30 12:21:28;;;;;;;10.03;2.50;;;;;;;7.54;100.00;100097.34;5281616;28;20127;-74
2022/12/30 12:24:16;;;;;;;8.03;2.33;;;;;;;7.55;100.00;100091.19;5271176;28;20463;-73
2022/12/30 12:26:51;;;;;;;12.27;2.20;;;;;;;7.39;100.00;100086.88;5262345;28;20037;-75
2022/12/30 12:29:24;;;;;;;7.83;1.90;;;;;;;7.47;100.00;100083.84;5275093;28;20129;-74
2022/12/30 12:32:35;;;;;;;16.37;7.10;;;;;;;7.47;100.00;100079.44;5275498;28;20088;-73
2022/12/30 12:35:22;;;;;;;9.77;3.60;;;;;;;7.43;100.00;100062.34;5275347;28;20070;-73
2022/12/30 12:38:24;;;;;;;9.73;2.27;;;;;;;7.43;100.00;100051.06;5275996;28;20060;-73
2022/12/30 12:41:27;;;;;;;11.53;2.90;;;;;;;7.33;100.00;100029.94;5269485;28;20046;-74
2022/12/30 12:44:05;;;;;;;7.63;2.60;;;;;;;7.31;100.00;100034.41;5280661;28;20028;-73
2022/12/30 12:46:51;;;;;;;10.93;2.67;;;;;;;7.30;100.00;100027.50;5272301;28;20105;-75
2022/12/30 12:49:56;;;;;;;9.53;2.80;;;;;;;7.31;100.00;100018.75;5274188;28;20051;-75
2022/12/30 12:52:46;;;;;;;;;;;;;;;7.27;100.00;100010.28;5270579;28;20552;-73
2022/12/30 12:55:36;;;;;;;7.80;3.20;;;;;;;7.20;100.00;99988.16;5277019;28;19912;-74
2022/12/30 12:58:11;;;;;;;8.43;2.63;;;;;;;7.15;100.00;99988.44;5275920;28;20040;-74
2022/12/30 13:00:57;;;;;;;13.47;4.13;;;;;;;7.07;100.00;99956.81;5277035;28;20040;-75
2022/12/30 13:03:47;;;;;;;12.47;5.13;;;;;;;7.13;100.00;99948.63;5258596;28;20036;-74
2022/12/30 13:06:33;;;;;;;8.93;2.70;;;;;;;7.12;100.00;99933.94;5263457;28;20037;-75
2022/12/30 13:09:41;;;;;;;6.93;2.30;;;;;;;7.12;100.00;99915.69;5275572;28;20029;-75
2022/12/30 13:12:40;;;;;;;11.77;2.43;;;;;;;7.09;100.00;99884.63;5276442;28;20514;-75
2022/12/30 13:15:28;;;;;;;8.53;2.13;;;;;;;7.10;100.00;99875.91;5271088;28;20040;-75
2022/12/30 13:18:05;;;;;;;9.97;2.30;;;;;;;7.08;100.00;99864.72;5275346;28;20453;-74
2022/12/30 13:20:46;;;;;;;11.27;2.23;;;;;;;7.10;100.00;99842.03;5264084;28;20048;-73
2022/12/30 13:23:23;;;;;;;10.80;2.50;;;;;;;7.01;100.00;99822.63;5267549;28;20103;-74
2022/12/30 13:25:58;;;;;;;8.67;4.07;;;;;;;7.08;100.00;99820.47;5272659;28;20115;-72
2022/12/30 13:28:33;;;;;;;10.10;4.50;;;;;;;7.08;100.00;99823.06;5273531;28;20032;-73
2022/12/30 13:31:19;;;;;;;7.13;1.98;;;;;;;7.10;100.00;99800.38;5284781;28;20055;-74
2022/12/30 13:34:02;;;;;;;7.17;3.87;;;;;;;7.00;100.00;99790.53;5273071;28;20025;-75
2022/12/30 13:37:24;;;;;;;6.20;2.77;;;;;;;6.98;100.00;99781.16;5275656;28;20047;-75
2022/12/30 13:40:02;;;;;;;5.97;2.03;;;;;;;7.10;100.00;99800.38;5214845;28;20559;-73
2022/12/30 13:43:10;;;;;;;4.63;1.80;;;;;;;7.13;100.00;99800.19;5264215;28;20049;-76
2022/12/30 13:45:44;;;;;;;6.43;1.67;;;;;;;7.04;100.00;99764.28;5267193;28;20485;-75
2022/12/30 13:48:20;;;;;;;5.93;2.30;;;;;;;6.90;100.00;99771.19;5277063;28;20024;-75
2022/12/30 13:51:02;;;;;;;7.57;2.17;;;;;;;6.95;100.00;99755.28;5277279;28;20375;-75
2022/12/30 13:53:34;;;;;;;4.63;2.07;;;;;;;7.06;100.00;99776.31;5275984;28;20020;-76
2022/12/30 13:56:08;;;;;;;5.03;1.50;;;;;;;6.93;100.00;99737.16;5277042;28;20028;-75
2022/12/30 13:58:52;;;;;;;5.17;2.20;;;;;;;6.95;100.00;99739.66;5276409;28;20574;-74
2022/12/30 14:01:41;;;;;;;5.15;1.45;;;;;;;6.93;100.00;99747.59;5277388;28;20075;-76
2022/12/30 14:04:12;;;;;;;5.80;1.90;;;;;;;7.05;100.00;99739.94;5276951;28;20032;-76
2022/12/30 14:06:52;;;;;;;5.37;1.77;;;;;;;7.02;100.00;99749.63;5278765;28;20451;-76
2022/12/30 14:09:26;;;;;;;6.00;2.47;;;;;;;7.00;100.00;99751.47;5280681;28;20087;-77
2022/12/30 14:12:08;;;;;;;8.57;1.80;;;;;;;7.05;100.00;99745.16;5281236;28;20441;-76
2022/12/30 14:14:42;;;;;;;6.00;2.20;;;;;;;7.06;100.00;99728.59;5277306;28;20032;-71
2022/12/30 14:17:32;;;;;;;4.90;1.73;;;;;;;7.09;100.00;99731.84;5277765;28;20066;-74
2022/12/30 14:20:21;;;;;;;6.83;1.60;;;;;;;7.12;100.00;99730.81;5277368;28;20044;-73
2022/12/30 14:22:58;;;;;;;7.87;1.63;;;;;;;7.14;100.00;99716.75;5311036;28;20024;-76
2022/12/30 14:25:31;;;;;;;4.60;1.40;;;;;;;7.16;100.00;99724.47;5277609;28;20020;-75
2022/12/30 14:28:02;;;;;;;4.07;1.30;;;;;;;7.18;100.00;99722.63;5278092;28;20031;-74
2022/12/30 14:30:36;;;;;;;7.87;1.90;;;;;;;7.20;100.00;99722.50;5276015;28;20511;-77
2022/12/30 14:33:14;;;;;;;5.78;2.17;;;;;;;7.23;100.00;99715.34;5277066;28;20086;-76
2022/12/30 14:35:58;;;;;;;3.40;1.67;;;;;;;7.21;100.00;99722.41;5277443;28;20024;-76
2022/12/30 14:38:38;;;;;;;3.90;1.67;;;;;;;7.27;100.00;99736.81;5277141;28;20074;-76
2022/12/30 14:41:13;;;;;;;3.57;1.50;;;;;;;7.30;100.00;99733.16;5276948;28;20306;-75
2022/12/30 14:44:17;;;;;;;5.33;1.57;;;;;;;7.32;100.00;99733.91;5277981;28;20709;-77
2022/12/30 14:46:51;;;;;;;4.53;1.20;;;;;;;7.26;100.00;99712.53;5277486;28;20437;-76
2022/12/30 14:49:28;;;;;;;3.13;1.67;;;;;;;7.41;100.00;99724.66;5275477;28;20032;-76
2022/12/30 14:52:12;;;;;;;7.13;4.00;;;;;;;7.42;100.00;99723.75;5277631;28;20383;-85
2022/12/30 14:54:53;;;;;;;4.63;2.00;;;;;;;7.44;100.00;99730.53;5276950;28;20024;-76
2022/12/30 14:57:30;;;;;;;5.33;3.10;;;;;;;7.47;100.00;99729.50;5278562;28;20043;-72
2022/12/30 15:00:10;;;;;;;3.00;1.20;;;;;;;7.50;100.00;99730.09;5275472;28;20035;-73
2022/12/30 15:02:46;;;;;;;1.40;1.00;;;;;;;7.50;100.00;99730.09;5278240;28;20399;-80
2022/12/30 15:05:30;;;;;;;2.20;0.77;;;;;;;7.55;100.00;99740.25;5276123;28;20522;-72
2022/12/30 15:08:06;;;;;;;4.13;1.33;;;;;;;7.58;100.00;99728.78;5276937;28;20067;-73
2022/12/30 15:10:59;;;;;;;0.90;0.73;;;;;;;7.55;100.00;99747.22;5277521;28;20029;-77
2022/12/30 15:13:49;;;;;;;1.23;0.80;;;;;;;7.65;100.00;99744.84;5264760;28;20048;-73
2022/12/30 15:16:24;;;;;;;1.07;0.90;;;;;;;7.65;100.00;99742.25;5272738;28;20028;-77
2022/12/30 15:18:57;;;;;;;4.37;1.10;;;;;;;7.59;100.00;99723.47;5276722;28;20021;-75
2022/12/30 15:21:35;;;;;;;2.70;1.00;;;;;;;7.70;100.00;99746.22;5279151;28;20044;-75
2022/12/30 15:24:11;;;;;;;2.23;1.00;;;;;;;7.72;100.00;99746.97;5278844;28;20013;-76
2022/12/30 15:26:42;;;;;;;4.27;0.80;;;;;;;7.75;100.00;99753.72;5276136;28;20031;-76
2022/12/30 15:29:32;;;;;;;1.20;0.83;;;;;;;7.37;100.00;99685.81;5278031;28;20024;-75
2022/12/30 15:32:06;;;;;;;1.43;1.00;;;;;;;7.74;100.00;99742.50;5279270;28;20117;-74
2022/12/30 15:34:39;;;;;;;3.80;1.10;;;;;;;7.56;100.00;99713.25;5279442;28;20457;-74
2022/12/30 15:37:32;;;;;;;3.03;1.47;;;;;;;7.84;100.00;99760.13;5277030;28;20032;-74
2022/12/30 15:40:07;;;;;;;2.23;1.00;;;;;;;7.85;100.00;99753.97;5276899;28;20356;-75
2022/12/30 15:42:50;;;;;;;1.50;1.10;;;;;;;7.89;100.00;99750.22;5277975;28;20383;-76
2022/12/30 15:45:37;;;;;;;2.33;1.13;;;;;;;7.91;100.00;99756.16;5277182;28;20422;-75
2022/12/30 15:48:20;;;;;;;1.93;1.03;;;;;;;7.92;100.00;99752.66;5278185;28;20106;-75
2022/12/30 15:50:59;;;;;;;8.37;3.97;;;;;;;7.91;100.00;99753.56;5277607;28;20032;-72
2022/12/30 15:53:33;;;;;;;2.83;1.87;;;;;;;7.92;100.00;99765.69;5276815;28;20096;-73
2022/12/30 15:56:12;;;;;;;2.75;1.33;;;;;;;8.02;100.00;99770.28;5276822;28;20111;-73
2022/12/30 15:58:55;;;;;;;2.33;1.73;;;;;;;7.99;100.00;99755.69;5275759;28;20037;-73
2022/12/30 16:01:37;;;;;;;4.07;1.53;;;;;;;8.07;100.00;99773.41;5274922;28;20510;-73
2022/12/30 16:04:14;;;;;;;2.30;1.60;;;;;;;8.10;100.00;99768.81;5276754;28;20055;-73
2022/12/30 16:06:48;;;;;;;2.40;1.60;;;;;;;8.16;100.00;99782.38;5276506;28;20036;-77
2022/12/30 16:09:46;;;;;;;2.95;1.33;;;;;;;8.14;100.00;99784.25;5274264;28;20036;-73
2022/12/30 16:12:45;;;;;;;2.00;1.30;;;;;;;8.19;100.00;99787.41;5272118;28;20037;-74
2022/12/30 16:15:36;;;;;;;2.37;1.30;;;;;;;8.19;100.00;99774.34;5272769;28;20036;-72
2022/12/30 16:18:14;;;;;;;2.07;1.30;;;;;;;8.28;100.00;99785.94;5273647;28;20033;-70
2022/12/30 16:20:58;;;;;;;1.83;1.20;;;;;;;8.30;100.00;99784.06;5274426;28;20450;-73
2022/12/30 16:23:38;;;;;;;1.73;1.33;;;;;;;8.32;100.00;99784.81;5282743;28;20048;-75
2022/12/30 16:26:30;;;;;;;8.93;7.70;;;;;;;8.32;100.00;99787.41;5272502;28;20025;-74
2022/12/30 16:29:22;;;;;;;3.10;1.67;;;;;;;8.33;100.00;99786.47;5273943;28;20059;-73
2022/12/30 16:31:53;;;;;;;2.77;1.10;;;;;;;8.34;100.00;99775.09;5275789;28;20016;-82
2022/12/30 16:34:24;;;;;;;1.57;1.20;;;;;;;8.44;100.00;99783.97;5273391;28;20029;-70
2022/12/30 16:36:56;;;;;;;1.87;1.20;;;;;;;8.39;100.00;99773.03;5264669;28;20063;-74
2022/12/30 16:39:27;;;;;;;2.10;1.30;;;;;;;8.39;100.00;99770.41;5263257;28;20028;-80
2022/12/30 16:41:58;;;;;;;1.80;1.00;;;;;;;8.59;100.00;99783.88;5264578;28;20043;-82
2022/12/30 16:44:30;;;;;;;2.10;1.20;;;;;;;8.65;100.00;99799.16;5259415;28;20040;-73
2022/12/30 16:47:01;;;;;;;1.50;1.20;;;;;;;8.68;100.00;99801.53;5256528;28;20033;-73
2022/12/30 16:49:32;;;;;;;4.67;1.23;;;;;;;8.68;100.00;99788.47;5252056;28;20028;-83
2022/12/30 16:52:04;;;;;;;2.10;1.10;;;;;;;8.70;100.00;99781.38;5252002;28;20028;-72
2022/12/30 16:54:35;;;;;;;1.40;1.20;;;;;;;8.80;100.00;99806.84;5248008;28;20252;-70
2022/12/30 16:57:11;;;;;;;1.30;1.10;;;;;;;8.86;100.00;99809.03;5250046;28;20092;-72
2022/12/30 16:59:42;;;;;;;1.87;1.17;;;;;;;8.89;100.00;99797.53;5260099;28;20089;-83
2022/12/30 17:02:20;;;;;;;2.50;1.53;;;;;;;8.91;100.00;99803.50;5254555;28;20029;-76
2022/12/30 17:04:51;;;;;;;1.47;1.10;;;;;;;8.81;100.00;99805.91;5251484;28;20174;-77
2022/12/30 17:07:22;;;;;;;2.37;1.50;;;;;;;8.97;100.00;99818.75;5250847;28;20111;-77
2022/12/30 17:12:45;;;;;;;3.13;1.90;;;;;;;9.01;100.00;99830.63;5267482;28;20044;-74
2022/12/30 17:15:16;;;;;;;2.23;1.37;;;;;;;9.07;100.00;99837.22;5268631;28;20029;-76
2022/12/30 17:17:48;;;;;;;1.73;1.43;;;;;;;9.04;100.00;99848.69;5272780;28;20031;-72
2022/12/30 17:20:19;;;;;;;1.93;1.73;;;;;;;9.09;100.00;99858.84;5272315;28;20053;-69
2022/12/30 17:22:54;;;;;;;1.80;1.30;;;;;;;9.02;100.00;99853.22;5272295;28;20112;-74
2022/12/30 17:25:26;;;;;;;4.27;2.00;;;;;;;9.16;100.00;99870.50;5270203;28;20108;-77
2022/12/30 17:27:57;;;;;;;2.20;1.60;;;;;;;9.19;100.00;99869.47;5272250;28;20103;-78
2022/12/30 17:30:28;;;;;;;2.50;1.90;;;;;;;9.26;100.00;99888.16;5275372;28;20040;-81
2022/12/30 17:33:00;;;;;;;2.73;1.73;;;;;;;9.22;100.00;99858.81;5274393;28;20056;-77
2022/12/30 17:35:33;;;;;;;3.00;2.30;;;;;;;9.34;100.00;99898.91;5268548;28;20033;-75
2022/12/30 17:38:05;;;;;;;2.97;2.27;;;;;;;9.36;100.00;99909.25;5274051;28;20028;-73
2022/12/30 17:40:36;;;;;;;4.37;3.00;;;;;;;9.42;100.00;99896.63;5273733;28;20522;-72
2022/12/30 17:43:10;;;;;;;3.13;2.40;;;;;;;9.42;100.00;99901.84;5279714;28;20027;-73
2022/12/30 17:45:42;;;;;;;5.93;3.88;;;;;;;9.23;100.00;99862.25;5277888;28;20382;-76
2022/12/30 17:48:16;;;;;;;3.87;2.87;;;;;;;9.54;100.00;99902.75;5279019;28;20016;-75
2022/12/30 17:50:47;;;;;;;3.22;2.00;;;;;;;9.54;100.00;99908.00;5280150;28;20499;-75
2022/12/30 17:53:20;;;;;;;2.37;2.00;;;;;;;9.62;100.00;99915.28;5279595;28;20020;-70
2022/12/30 17:55:52;;;;;;;2.87;2.53;;;;;;;9.58;100.00;99921.69;5278842;28;20016;-70
2022/12/30 17:58:23;;;;;;;2.27;2.07;;;;;;;9.65;100.00;99914.22;5278472;28;20047;-75
2022/12/30 18:00:55;;;;;;;3.00;2.57;;;;;;;9.68;100.00;99917.47;5277061;28;20021;-72
2022/12/30 18:03:26;;;;;;;3.70;3.40;;;;;;;9.71;100.00;99907.72;5278720;28;20035;-76
2022/12/30 18:05:58;;;;;;;3.67;3.17;;;;;;;9.68;100.00;99909.63;5278496;28;20107;-72
2022/12/30 18:08:29;;;;;;;3.93;3.53;;;;;;;9.78;100.00;99932.47;5278712;28;20106;-75
2022/12/30 18:11:02;;;;;;;4.00;3.60;;;;;;;9.78;100.00;99941.16;5278987;28;20434;-78
2022/12/30 18:13:36;;;;;;;4.50;4.10;;;;;;;9.82;100.00;99957.47;5277869;28;20031;-72
2022/12/30 18:16:10;;;;;;;5.43;3.73;;;;;;;9.86;100.00;99960.72;5279013;28;20489;-79
2022/12/30 18:18:42;;;;;;;4.33;3.63;;;;;;;9.89;100.00;99965.72;5277519;28;20748;-76
2022/12/30 18:21:16;;;;;;;5.60;4.93;;;;;;;9.84;100.00;99950.38;5277252;28;20083;-78
2022/12/30 18:23:47;;;;;;;3.75;3.13;;;;;;;10.01;100.00;99958.78;5278075;28;20030;-78
2022/12/30 18:26:22;;;;;;;5.07;3.13;;;;;;;10.07;100.00;99955.69;5278927;28;20036;-72
2022/12/30 18:28:54;;;;;;;3.10;2.67;;;;;;;10.04;100.00;99966.41;5277023;28;20089;-82
2022/12/30 18:31:28;;;;;;;4.23;2.30;;;;;;;10.13;100.00;99970.13;5278359;28;20032;-76
2022/12/30 18:34:01;;;;;;;3.92;1.80;;;;;;;10.22;100.00;99963.41;5278314;28;20040;-76
2022/12/30 18:36:33;;;;;;;3.53;1.70;;;;;;;10.17;100.00;99953.28;5277453;28;20016;-74
2022/12/30 18:39:05;;;;;;;3.13;1.43;;;;;;;10.19;100.00;99961.00;5278658;28;20020;-77
2022/12/30 18:41:36;;;;;;;3.50;1.60;;;;;;;10.27;100.00;99985.69;5278667;28;20037;-74
2022/12/30 18:44:10;;;;;;;3.00;1.60;;;;;;;10.31;100.00;99986.28;5277538;28;20682;-81
2022/12/30 18:46:41;;;;;;;3.00;1.53;;;;;;;10.33;100.00;99992.25;5277255;28;20028;-74
2022/12/30 18:49:13;;;;;;;4.50;1.33;;;;;;;10.37;100.00;99995.47;5277710;28;20472;-71
2022/12/30 18:51:44;;;;;;;4.57;1.67;;;;;;;10.33;100.00;100000.13;5278144;28;20024;-75
2022/12/30 18:54:18;;;;;;;6.80;1.70;;;;;;;10.43;100.00;100000.28;5277673;28;20105;-75
2022/12/30 18:56:50;;;;;;;3.85;1.70;;;;;;;10.45;100.00;100008.00;5278142;28;20024;-79
2022/12/30 18:59:22;;;;;;;3.63;1.37;;;;;;;10.45;100.00;100008.00;5278236;28;20368;-80
2022/12/30 19:01:54;;;;;;;4.80;1.93;;;;;;;10.38;100.00;100003.22;5277406;28;20021;-72
2022/12/30 19:04:25;;;;;;;3.77;1.53;;;;;;;10.51;100.00;100020.66;5278196;28;20090;-78
2022/12/30 19:06:56;;;;;;;4.90;2.40;;;;;;;10.48;100.00;100013.03;5277656;28;20531;-74
2022/12/30 19:09:28;;;;;;;3.17;2.00;;;;;;;10.51;100.00;100013.66;5277738;28;20060;-76
2022/12/30 19:12:00;;;;;;;2.73;1.70;;;;;;;10.55;100.00;100019.50;5278202;28;20020;-74
2022/12/30 19:14:31;;;;;;;3.27;1.60;;;;;;;10.48;100.00;100010.44;5277084;28;20379;-78
2022/12/30 19:17:03;;;;;;;3.17;1.53;;;;;;;10.53;100.00;100018.78;5275240;28;20016;-79
2022/12/30 19:19:34;;;;;;;3.40;2.00;;;;;;;10.55;100.00;100019.50;5278278;28;20044;-74
2022/12/30 19:22:05;;;;;;;4.37;1.50;;;;;;;10.68;100.00;100036.94;5275599;28;20040;-73
2022/12/30 19:24:38;;;;;;;1.60;1.30;;;;;;;10.67;100.00;100033.47;5271999;28;20057;-79
2022/12/30 19:27:09;;;;;;;4.97;1.70;;;;;;;10.69;100.00;100033.38;5274488;28;20514;-74
2022/12/30 19:29:41;;;;;;;3.77;1.60;;;;;;;10.75;100.00;100046.03;5264892;28;20037;-71
2022/12/30 19:32:12;;;;;;;4.70;2.67;;;;;;;10.77;100.00;100044.09;5268150;28;20109;-70
2022/12/30 19:34:43;;;;;;;3.50;2.17;;;;;;;10.76;100.00;100052.91;5269693;28;20029;-71
2022/12/30 19:37:14;;;;;;;4.37;1.60;;;;;;;10.77;100.00;100054.56;5264537;28;20415;-73
2022/12/30 19:39:46;;;;;;;6.67;1.70;;;;;;;10.85;100.00;100056.66;5267831;28;20039;-73
2022/12/30 19:42:17;;;;;;;3.47;1.43;;;;;;;10.92;100.00;100064.88;5269826;28;20035;-71
2022/12/30 19:44:48;;;;;;;3.90;1.53;;;;;;;10.86;100.00;100067.00;5270423;28;20790;-70
2022/12/30 19:47:20;;;;;;;3.47;1.70;;;;;;;10.88;100.00;100077.38;5270017;28;20051;-72
2022/12/30 19:49:51;;;;;;;4.00;1.83;;;;;;;10.80;100.00;100062.25;5269068;28;20035;-72
2022/12/30 19:52:22;;;;;;;6.03;2.07;;;;;;;10.91;100.00;100092.84;5269886;28;20044;-73
2022/12/30 19:54:53;;;;;;;2.73;1.47;;;;;;;10.96;100.00;100092.53;5268603;28;20074;-72
2022/12/30 19:57:25;;;;;;;5.13;1.90;;;;;;;10.90;100.00;100099.06;5268647;28;20056;-70
2022/12/30 19:59:56;;;;;;;4.50;1.47;;;;;;;10.91;100.00;100113.81;5265171;28;20048;-72
2022/12/30 20:02:29;;;;;;;4.50;1.87;;;;;;;10.95;100.00;100110.03;5267175;28;20052;-71
2022/12/30 20:05:01;;;;;;;4.03;1.20;;;;;;;10.99;100.00;100108.88;5266297;28;20090;-72
2022/12/30 20:07:33;;;;;;;3.60;1.50;;;;;;;10.97;100.00;100120.41;5268142;28;20288;-74
2022/12/30 20:10:06;;;;;;;6.13;1.43;;;;;;;11.07;100.00;100123.16;5269210;28;20979;-70
2022/12/30 20:12:37;;;;;;;3.30;1.17;;;;;;;11.06;100.00;100127.59;5268564;28;20402;-69
2022/12/30 20:15:09;;;;;;;4.47;1.40;;;;;;;11.11;100.00;100133.34;5265219;28;20079;-69
2022/12/30 20:17:40;;;;;;;4.37;1.77;;;;;;;11.07;100.00;100128.41;5268040;28;20040;-71
2022/12/30 20:20:12;;;;;;;4.37;1.70;;;;;;;11.06;100.00;100135.47;5263929;28;20056;-73
2022/12/30 20:22:46;;;;;;;4.07;1.10;;;;;;;11.08;100.00;100136.16;5267205;28;20036;-69
2022/12/30 20:25:17;;;;;;;4.57;1.02;;;;;;;11.08;100.00;100151.06;5266526;28;20028;-69
2022/12/30 20:27:48;;;;;;;3.70;1.53;;;;;;;11.15;100.00;100156.69;5266411;28;20021;-72
2022/12/30 20:30:20;;;;;;;3.07;1.30;;;;;;;11.08;100.00;100149.25;5266986;28;20028;-71
2022/12/30 20:32:51;;;;;;;3.20;1.50;;;;;;;11.10;100.00;100136.06;5267712;28;20851;-70
2022/12/30 20:35:23;;;;;;;4.67;1.70;;;;;;;11.21;100.00;100150.97;5265667;28;20044;-72
2022/12/30 20:37:54;;;;;;;4.37;2.03;;;;;;;11.02;100.00;100105.19;5265101;28;20029;-74
2022/12/30 20:40:25;;;;;;;4.03;2.10;;;;;;;11.25;100.00;100139.34;5265210;28;20093;-68
2022/12/30 20:42:56;;;;;;;7.10;3.97;;;;;;;11.27;100.00;100134.81;5264269;28;20064;-70
2022/12/30 20:45:28;;;;;;;5.20;2.80;;;;;;;11.25;100.00;100136.72;5268194;28;20085;-70
2022/12/30 20:47:59;;;;;;;3.43;2.60;;;;;;;11.31;100.00;100141.50;5268292;28;20040;-71
2022/12/30 20:50:32;;;;;;;7.67;5.83;;;;;;;11.24;100.00;100129.81;5268009;28;21239;-69
2022/12/30 20:53:03;;;;;;;5.60;4.50;;;;;;;11.34;100.00;100149.16;5267098;28;20029;-69
2022/12/30 20:55:38;;;;;;;3.43;2.10;;;;;;;11.38;100.00;100147.09;5268657;28;20063;-69
2022/12/30 20:58:10;;;;;;;3.83;1.43;;;;;;;11.40;100.00;100139.16;5267283;28;20115;-69
2022/12/30 21:00:41;;;;;;;4.50;3.30;;;;;;;11.47;100.00;100150.81;5266101;28;20039;-69
2022/12/30 21:03:12;;;;;;;3.03;1.60;;;;;;;11.48;100.00;100145.47;5268222;28;20078;-70
2022/12/30 21:05:43;;;;;;;3.20;1.73;;;;;;;11.45;100.00;100142.25;5269262;28;20494;-69
2022/12/30 21:08:15;;;;;;;3.40;1.80;;;;;;;11.38;100.00;100132.22;5268322;28;21450;-69
2022/12/30 21:10:50;;;;;;;2.60;1.60;;;;;;;11.49;100.00;100154.19;5267829;28;20418;-69
2022/12/30 21:13:21;;;;;;;3.67;1.93;;;;;;;11.46;100.00;100154.41;5273910;28;20036;-68
